Ship Status Report: callsign EC3012

sailwx.info

Track history (hours):
 
Tides and Currents Weather Stations Pressure Air Temp Water Temp Dewpoint Dewpoint Depression Visibility Wind Speed Wind Dir Waves Ship Positions

Callsign EC3012 (name unknown)

Last reported at 2017-Sep-27 20:19 UTC. Time now 2017-Dec-11 00:31 UTC.
Position N 40°06' E 001°09'.
Warning: this ship's position is months out of date.

Date/timePositionNaut miles runAvg speedWind from/ knotsBaromVisibWave heightAir tempDewpointWater temp
2017-Sep-27 20:19N 40°06' E 001°09'4 8.4
2017-Sep-27 19:50N 40°10' E 001°11'2 5.9
2017-Sep-27 19:24N 40°12' E 001°13'4 3.2
2017-Sep-27 18:18N 40°09' E 001°15'3 8.4
2017-Sep-27 17:54N 40°06' E 001°13'3 6.3
2017-Sep-27 17:24N 40°03' E 001°11'2 4.4
2017-Sep-27 17:00N 40°02' E 001°10'25 0.6
2017-Sep-25 20:40N 39°43' E 000°49'2 8.8
2017-Sep-25 20:30N 39°45' E 000°49'4 8.6
2017-Sep-25 20:00N 39°48' E 000°52'10 7.1
2017-Sep-25 18:34N 39°56' E 001°01'2 8.8
2017-Sep-25 18:19N 39°57' E 001°03'3 9.2
2017-Sep-25 18:00N 39°59' E 001°06'3 5.2
2017-Sep-25 17:25N 40°00' E 001°02'4 8.5
2017-Sep-25 16:57N 39°59' E 000°57'1 1.2
2017-Sep-25 16:14N 39°59' E 000°56'0 0.7
2017-Sep-25 15:59N 39°59' E 000°55'13 1.9
2017-Sep-25 09:02N 39°47' E 000°48'0 0.1
2017-Sep-25 08:58N 39°47' E 000°48'0 0.3
2017-Sep-25 08:23N 39°47' E 000°48'0 0.6
2017-Sep-25 07:51N 39°47' E 000°48'1 0.2
2017-Sep-25 02:27N 39°47' E 000°50'0 0.8
2017-Sep-25 02:00N 39°47' E 000°49'0 0.8
2017-Sep-25 01:30N 39°47' E 000°49'1 0.8
2017-Sep-25 00:41N 39°46' E 000°49'0 0.8
2017-Sep-25 00:29N 39°46' E 000°48'0 0.8
2017-Sep-24 23:58N 39°46' E 000°48'7 1.1
2017-Sep-24 17:32N 39°51' E 000°54'0 1.1
2017-Sep-24 17:29N 39°51' E 000°54'3 6.0
2017-Sep-24 17:00N 39°54' E 000°56'4 7.9
2017-Sep-24 16:30N 39°57' E 000°59'4 7.8
2017-Sep-24 16:00N 39°60' E 001°03'1 1.5
2017-Sep-24 15:07N 39°59' E 001°01'1 6.1
2017-Sep-24 14:55N 39°58' E 001°01'  
2017-Sep-21 16:01N 40°11' E 001°12'1 4.5
2017-Sep-21 15:47N 40°12' E 001°13'9 0.2
2017-Sep-19 20:11N 40°04' E 001°07'0 0.3
2017-Sep-19 20:00N 40°04' E 001°07'0 0.8
2017-Sep-19 19:30N 40°04' E 001°07'  
Track history (hours):
 
Tides and Currents Weather Stations Pressure Air Temp Water Temp Dewpoint Dewpoint Depression Visibility Wind Speed Wind Dir Waves Ship Positions

Callsign EC3012 (name unknown)

Last reported at 2017-Sep-27 20:19 UTC. Time now 2017-Dec-11 00:31 UTC.
Position N 40°06' E 001°09'.
Warning: this ship's position is months out of date.

Date/timePositionNaut miles runAvg speedWind from/ knotsBaromVisibWave heightAir tempDewpointWater temp
2017-Sep-27 20:19N 40°06' E 001°09'4 8.4
2017-Sep-27 19:50N 40°10' E 001°11'2 5.9
2017-Sep-27 19:24N 40°12' E 001°13'4 3.2
2017-Sep-27 18:18N 40°09' E 001°15'3 8.4
2017-Sep-27 17:54N 40°06' E 001°13'3 6.3
2017-Sep-27 17:24N 40°03' E 001°11'2 4.4
2017-Sep-27 17:00N 40°02' E 001°10'25 0.6
2017-Sep-25 20:40N 39°43' E 000°49'2 8.8
2017-Sep-25 20:30N 39°45' E 000°49'4 8.6
2017-Sep-25 20:00N 39°48' E 000°52'10 7.1
2017-Sep-25 18:34N 39°56' E 001°01'2 8.8
2017-Sep-25 18:19N 39°57' E 001°03'3 9.2
2017-Sep-25 18:00N 39°59' E 001°06'3 5.2
2017-Sep-25 17:25N 40°00' E 001°02'4 8.5
2017-Sep-25 16:57N 39°59' E 000°57'1 1.2
2017-Sep-25 16:14N 39°59' E 000°56'0 0.7
2017-Sep-25 15:59N 39°59' E 000°55'13 1.9
2017-Sep-25 09:02N 39°47' E 000°48'0 0.1
2017-Sep-25 08:58N 39°47' E 000°48'0 0.3
2017-Sep-25 08:23N 39°47' E 000°48'0 0.6
2017-Sep-25 07:51N 39°47' E 000°48'1 0.2
2017-Sep-25 02:27N 39°47' E 000°50'0 0.8
2017-Sep-25 02:00N 39°47' E 000°49'0 0.8
2017-Sep-25 01:30N 39°47' E 000°49'1 0.8
2017-Sep-25 00:41N 39°46' E 000°49'0 0.8
2017-Sep-25 00:29N 39°46' E 000°48'0 0.8
2017-Sep-24 23:58N 39°46' E 000°48'7 1.1
2017-Sep-24 17:32N 39°51' E 000°54'0 1.1
2017-Sep-24 17:29N 39°51' E 000°54'3 6.0
2017-Sep-24 17:00N 39°54' E 000°56'4 7.9
2017-Sep-24 16:30N 39°57' E 000°59'4 7.8
2017-Sep-24 16:00N 39°60' E 001°03'1 1.5
2017-Sep-24 15:07N 39°59' E 001°01'1 6.1
2017-Sep-24 14:55N 39°58' E 001°01'  
2017-Sep-21 16:01N 40°11' E 001°12'1 4.5
2017-Sep-21 15:47N 40°12' E 001°13'9 0.2
2017-Sep-19 20:11N 40°04' E 001°07'0 0.3
2017-Sep-19 20:00N 40°04' E 001°07'0 0.8
2017-Sep-19 19:30N 40°04' E 001°07'  

Dump ship's entire track history